sensor_id;sensor_type;location;lat;lon;timestamp;P1;durP1;ratioP1;P2;durP2;ratioP2
37973;SDS011;23796;51.458;7.000;2023-04-24T00:01:01;1.75;;;0.50;;
37973;SDS011;23796;51.458;7.000;2023-04-24T00:03:27;1.13;;;0.22;;
37973;SDS011;23796;51.458;7.000;2023-04-24T00:05:55;1.75;;;0.40;;
37973;SDS011;23796;51.458;7.000;2023-04-24T00:08:21;0.98;;;0.38;;
37973;SDS011;23796;51.458;7.000;2023-04-24T00:10:47;0.95;;;0.40;;
37973;SDS011;23796;51.458;7.000;2023-04-24T00:13:13;3.03;;;0.60;;
37973;SDS011;23796;51.458;7.000;2023-04-24T00:15:38;1.60;;;0.43;;
37973;SDS011;23796;51.458;7.000;2023-04-24T00:18:06;1.65;;;0.40;;
37973;SDS011;23796;51.458;7.000;2023-04-24T00:20:34;1.65;;;0.43;;
37973;SDS011;23796;51.458;7.000;2023-04-24T00:23:04;3.35;;;0.50;;
37973;SDS011;23796;51.458;7.000;2023-04-24T00:25:30;0.98;;;0.40;;
37973;SDS011;23796;51.458;7.000;2023-04-24T00:27:56;2.35;;;0.60;;
37973;SDS011;23796;51.458;7.000;2023-04-24T00:30:21;1.30;;;0.60;;
37973;SDS011;23796;51.458;7.000;2023-04-24T00:32:49;2.22;;;0.70;;
37973;SDS011;23796;51.458;7.000;2023-04-24T00:35:15;1.55;;;0.55;;
37973;SDS011;23796;51.458;7.000;2023-04-24T00:37:41;2.88;;;0.55;;
37973;SDS011;23796;51.458;7.000;2023-04-24T00:40:08;0.98;;;0.40;;
37973;SDS011;23796;51.458;7.000;2023-04-24T00:42:35;2.63;;;0.60;;
37973;SDS011;23796;51.458;7.000;2023-04-24T00:45:03;1.90;;;0.60;;
37973;SDS011;23796;51.458;7.000;2023-04-24T00:47:32;2.08;;;0.70;;
37973;SDS011;23796;51.458;7.000;2023-04-24T00:50:02;2.08;;;0.70;;
37973;SDS011;23796;51.458;7.000;2023-04-24T00:52:28;1.33;;;0.60;;
37973;SDS011;23796;51.458;7.000;2023-04-24T00:54:56;1.63;;;0.75;;
37973;SDS011;23796;51.458;7.000;2023-04-24T00:57:21;2.55;;;0.90;;
37973;SDS011;23796;51.458;7.000;2023-04-24T00:59:48;1.15;;;0.50;;
37973;SDS011;23796;51.458;7.000;2023-04-24T01:02:15;1.98;;;0.80;;
37973;SDS011;23796;51.458;7.000;2023-04-24T01:04:43;2.70;;;1.15;;
37973;SDS011;23796;51.458;7.000;2023-04-24T01:07:11;3.50;;;0.85;;
37973;SDS011;23796;51.458;7.000;2023-04-24T01:09:40;3.97;;;0.82;;
37973;SDS011;23796;51.458;7.000;2023-04-24T01:12:09;1.83;;;0.70;;
37973;SDS011;23796;51.458;7.000;2023-04-24T01:14:34;2.28;;;0.77;;
37973;SDS011;23796;51.458;7.000;2023-04-24T01:17:01;1.98;;;0.77;;
37973;SDS011;23796;51.458;7.000;2023-04-24T01:19:27;3.22;;;1.00;;
37973;SDS011;23796;51.458;7.000;2023-04-24T01:21:56;2.40;;;1.20;;
37973;SDS011;23796;51.458;7.000;2023-04-24T01:24:23;2.35;;;1.10;;
37973;SDS011;23796;51.458;7.000;2023-04-24T01:26:49;2.45;;;1.00;;
37973;SDS011;23796;51.458;7.000;2023-04-24T01:29:15;3.15;;;1.13;;
37973;SDS011;23796;51.458;7.000;2023-04-24T01:31:43;3.42;;;1.05;;
37973;SDS011;23796;51.458;7.000;2023-04-24T01:34:11;2.65;;;0.93;;
37973;SDS011;23796;51.458;7.000;2023-04-24T01:36:37;5.10;;;1.25;;
37973;SDS011;23796;51.458;7.000;2023-04-24T01:39:03;4.60;;;1.48;;
37973;SDS011;23796;51.458;7.000;2023-04-24T01:41:31;3.22;;;1.30;;
37973;SDS011;23796;51.458;7.000;2023-04-24T01:44:00;2.83;;;1.42;;
37973;SDS011;23796;51.458;7.000;2023-04-24T01:46:28;3.35;;;1.75;;
37973;SDS011;23796;51.458;7.000;2023-04-24T01:48:59;4.30;;;2.35;;
37973;SDS011;23796;51.458;7.000;2023-04-24T01:51:26;3.90;;;2.15;;
37973;SDS011;23796;51.458;7.000;2023-04-24T01:53:54;5.15;;;2.40;;
37973;SDS011;23796;51.458;7.000;2023-04-24T01:56:21;4.32;;;2.38;;
37973;SDS011;23796;51.458;7.000;2023-04-24T01:58:47;5.65;;;2.38;;
37973;SDS011;23796;51.458;7.000;2023-04-24T02:01:20;3.22;;;1.67;;
37973;SDS011;23796;51.458;7.000;2023-04-24T02:03:46;4.68;;;1.80;;
37973;SDS011;23796;51.458;7.000;2023-04-24T02:06:11;3.40;;;1.95;;
37973;SDS011;23796;51.458;7.000;2023-04-24T02:08:39;4.78;;;2.58;;
37973;SDS011;23796;51.458;7.000;2023-04-24T02:11:12;4.63;;;2.97;;
37973;SDS011;23796;51.458;7.000;2023-04-24T02:13:40;5.15;;;2.80;;
37973;SDS011;23796;51.458;7.000;2023-04-24T02:16:08;5.40;;;2.97;;
37973;SDS011;23796;51.458;7.000;2023-04-24T02:18:38;4.90;;;3.10;;
37973;SDS011;23796;51.458;7.000;2023-04-24T02:21:04;4.22;;;3.05;;
37973;SDS011;23796;51.458;7.000;2023-04-24T02:23:32;7.22;;;3.88;;
37973;SDS011;23796;51.458;7.000;2023-04-24T02:25:58;5.22;;;3.60;;
37973;SDS011;23796;51.458;7.000;2023-04-24T02:28:23;6.82;;;3.67;;
37973;SDS011;23796;51.458;7.000;2023-04-24T02:30:49;6.95;;;3.42;;
37973;SDS011;23796;51.458;7.000;2023-04-24T02:33:18;7.72;;;4.85;;
37973;SDS011;23796;51.458;7.000;2023-04-24T02:35:43;7.55;;;4.43;;
37973;SDS011;23796;51.458;7.000;2023-04-24T02:38:09;7.60;;;4.30;;
37973;SDS011;23796;51.458;7.000;2023-04-24T02:40:34;8.63;;;4.50;;
37973;SDS011;23796;51.458;7.000;2023-04-24T02:43:00;8.25;;;4.60;;
37973;SDS011;23796;51.458;7.000;2023-04-24T02:45:28;7.00;;;4.75;;
37973;SDS011;23796;51.458;7.000;2023-04-24T02:47:53;7.63;;;5.15;;
37973;SDS011;23796;51.458;7.000;2023-04-24T02:50:21;6.00;;;4.55;;
37973;SDS011;23796;51.458;7.000;2023-04-24T02:52:49;7.18;;;5.20;;
37973;SDS011;23796;51.458;7.000;2023-04-24T02:55:15;9.25;;;5.35;;
37973;SDS011;23796;51.458;7.000;2023-04-24T02:57:40;8.65;;;5.30;;
37973;SDS011;23796;51.458;7.000;2023-04-24T03:00:06;9.73;;;5.50;;
37973;SDS011;23796;51.458;7.000;2023-04-24T03:02:33;10.30;;;5.68;;
37973;SDS011;23796;51.458;7.000;2023-04-24T03:04:59;10.40;;;6.00;;
37973;SDS011;23796;51.458;7.000;2023-04-24T03:07:30;9.55;;;5.78;;
37973;SDS011;23796;51.458;7.000;2023-04-24T03:09:58;9.45;;;5.50;;
37973;SDS011;23796;51.458;7.000;2023-04-24T03:12:26;7.50;;;6.03;;
37973;SDS011;23796;51.458;7.000;2023-04-24T03:14:52;8.90;;;6.10;;
37973;SDS011;23796;51.458;7.000;2023-04-24T03:17:17;9.40;;;6.30;;
37973;SDS011;23796;51.458;7.000;2023-04-24T03:19:43;9.13;;;7.03;;
37973;SDS011;23796;51.458;7.000;2023-04-24T03:22:08;8.23;;;5.93;;
37973;SDS011;23796;51.458;7.000;2023-04-24T03:24:36;9.63;;;5.97;;
37973;SDS011;23796;51.458;7.000;2023-04-24T03:27:02;11.27;;;6.53;;
37973;SDS011;23796;51.458;7.000;2023-04-24T03:29:30;8.35;;;6.28;;
37973;SDS011;23796;51.458;7.000;2023-04-24T03:31:58;12.85;;;6.38;;
37973;SDS011;23796;51.458;7.000;2023-04-24T03:34:25;9.40;;;6.53;;
37973;SDS011;23796;51.458;7.000;2023-04-24T03:36:53;10.52;;;6.45;;
37973;SDS011;23796;51.458;7.000;2023-04-24T03:39:19;9.52;;;6.45;;
37973;SDS011;23796;51.458;7.000;2023-04-24T03:41:45;9.55;;;6.97;;
37973;SDS011;23796;51.458;7.000;2023-04-24T03:44:10;9.70;;;7.20;;
37973;SDS011;23796;51.458;7.000;2023-04-24T03:46:36;8.23;;;6.88;;
37973;SDS011;23796;51.458;7.000;2023-04-24T03:49:04;11.27;;;6.55;;
37973;SDS011;23796;51.458;7.000;2023-04-24T03:51:29;10.05;;;5.65;;
37973;SDS011;23796;51.458;7.000;2023-04-24T03:53:56;11.10;;;7.00;;
37973;SDS011;23796;51.458;7.000;2023-04-24T03:56:22;7.72;;;6.43;;
37973;SDS011;23796;51.458;7.000;2023-04-24T03:58:47;9.18;;;6.03;;
37973;SDS011;23796;51.458;7.000;2023-04-24T04:01:15;11.82;;;6.53;;
37973;SDS011;23796;51.458;7.000;2023-04-24T04:03:41;10.10;;;7.18;;
37973;SDS011;23796;51.458;7.000;2023-04-24T04:06:09;10.50;;;6.60;;
37973;SDS011;23796;51.458;7.000;2023-04-24T04:08:38;9.68;;;6.43;;
37973;SDS011;23796;51.458;7.000;2023-04-24T04:11:03;9.32;;;6.65;;
37973;SDS011;23796;51.458;7.000;2023-04-24T04:13:31;10.88;;;6.57;;
37973;SDS011;23796;51.458;7.000;2023-04-24T04:15:57;8.05;;;5.68;;
37973;SDS011;23796;51.458;7.000;2023-04-24T04:18:25;7.88;;;5.72;;
37973;SDS011;23796;51.458;7.000;2023-04-24T04:20:53;11.00;;;6.30;;
37973;SDS011;23796;51.458;7.000;2023-04-24T04:23:21;7.78;;;5.82;;
37973;SDS011;23796;51.458;7.000;2023-04-24T04:25:47;8.38;;;6.13;;
37973;SDS011;23796;51.458;7.000;2023-04-24T04:28:16;8.68;;;5.70;;
37973;SDS011;23796;51.458;7.000;2023-04-24T04:30:44;10.18;;;6.65;;
37973;SDS011;23796;51.458;7.000;2023-04-24T04:33:12;8.40;;;6.00;;
37973;SDS011;23796;51.458;7.000;2023-04-24T04:35:39;9.10;;;6.15;;
37973;SDS011;23796;51.458;7.000;2023-04-24T04:38:05;10.52;;;6.15;;
37973;SDS011;23796;51.458;7.000;2023-04-24T04:40:35;9.30;;;6.00;;
37973;SDS011;23796;51.458;7.000;2023-04-24T04:43:01;7.32;;;6.03;;
37973;SDS011;23796;51.458;7.000;2023-04-24T04:45:27;10.93;;;5.85;;
37973;SDS011;23796;51.458;7.000;2023-04-24T04:47:55;9.05;;;6.05;;
37973;SDS011;23796;51.458;7.000;2023-04-24T04:50:21;9.70;;;5.80;;
37973;SDS011;23796;51.458;7.000;2023-04-24T04:52:49;8.15;;;5.75;;
37973;SDS011;23796;51.458;7.000;2023-04-24T04:55:17;7.85;;;5.45;;
37973;SDS011;23796;51.458;7.000;2023-04-24T04:57:45;7.70;;;5.18;;
37973;SDS011;23796;51.458;7.000;2023-04-24T05:00:11;8.57;;;5.45;;
37973;SDS011;23796;51.458;7.000;2023-04-24T05:02:37;7.18;;;5.28;;
37973;SDS011;23796;51.458;7.000;2023-04-24T05:05:03;8.07;;;5.43;;
37973;SDS011;23796;51.458;7.000;2023-04-24T05:07:30;7.82;;;5.40;;
37973;SDS011;23796;51.458;7.000;2023-04-24T05:09:56;9.63;;;5.20;;
37973;SDS011;23796;51.458;7.000;2023-04-24T05:12:24;8.68;;;5.05;;
37973;SDS011;23796;51.458;7.000;2023-04-24T05:14:49;9.50;;;5.10;;
37973;SDS011;23796;51.458;7.000;2023-04-24T05:17:15;6.95;;;5.15;;
37973;SDS011;23796;51.458;7.000;2023-04-24T05:19:43;7.07;;;4.93;;
37973;SDS011;23796;51.458;7.000;2023-04-24T05:22:09;9.90;;;5.72;;
37973;SDS011;23796;51.458;7.000;2023-04-24T05:24:36;6.47;;;4.47;;
37973;SDS011;23796;51.458;7.000;2023-04-24T05:27:04;9.48;;;5.72;;
37973;SDS011;23796;51.458;7.000;2023-04-24T05:29:30;8.43;;;5.45;;
37973;SDS011;23796;51.458;7.000;2023-04-24T05:31:57;7.03;;;5.30;;
37973;SDS011;23796;51.458;7.000;2023-04-24T05:34:23;6.97;;;5.70;;
37973;SDS011;23796;51.458;7.000;2023-04-24T05:36:49;7.45;;;5.72;;
37973;SDS011;23796;51.458;7.000;2023-04-24T05:39:19;9.32;;;5.70;;
37973;SDS011;23796;51.458;7.000;2023-04-24T05:41:45;7.95;;;5.50;;
37973;SDS011;23796;51.458;7.000;2023-04-24T05:44:11;8.77;;;5.47;;
37973;SDS011;23796;51.458;7.000;2023-04-24T05:46:36;8.10;;;5.70;;
37973;SDS011;23796;51.458;7.000;2023-04-24T05:49:02;7.70;;;5.97;;
37973;SDS011;23796;51.458;7.000;2023-04-24T05:51:28;9.10;;;6.25;;
37973;SDS011;23796;51.458;7.000;2023-04-24T05:53:54;9.93;;;6.07;;
37973;SDS011;23796;51.458;7.000;2023-04-24T05:56:19;8.05;;;5.65;;
37973;SDS011;23796;51.458;7.000;2023-04-24T05:58:45;8.05;;;6.38;;
37973;SDS011;23796;51.458;7.000;2023-04-24T06:01:11;7.10;;;5.50;;
37973;SDS011;23796;51.458;7.000;2023-04-24T06:03:39;8.68;;;5.80;;
37973;SDS011;23796;51.458;7.000;2023-04-24T06:06:08;6.65;;;5.45;;
37973;SDS011;23796;51.458;7.000;2023-04-24T06:08:34;7.68;;;5.90;;
37973;SDS011;23796;51.458;7.000;2023-04-24T06:11:00;8.10;;;5.43;;
37973;SDS011;23796;51.458;7.000;2023-04-24T06:13:25;8.35;;;4.95;;
37973;SDS011;23796;51.458;7.000;2023-04-24T06:15:53;6.80;;;4.82;;
37973;SDS011;23796;51.458;7.000;2023-04-24T06:18:19;6.28;;;5.22;;
37973;SDS011;23796;51.458;7.000;2023-04-24T06:20:46;7.70;;;4.85;;
37973;SDS011;23796;51.458;7.000;2023-04-24T06:23:15;7.13;;;4.53;;
37973;SDS011;23796;51.458;7.000;2023-04-24T06:25:40;8.50;;;5.13;;
37973;SDS011;23796;51.458;7.000;2023-04-24T06:28:06;6.45;;;4.60;;
37973;SDS011;23796;51.458;7.000;2023-04-24T06:30:32;6.10;;;4.65;;
37973;SDS011;23796;51.458;7.000;2023-04-24T06:32:57;6.30;;;4.88;;
37973;SDS011;23796;51.458;7.000;2023-04-24T06:35:23;7.38;;;6.10;;
37973;SDS011;23796;51.458;7.000;2023-04-24T06:37:48;7.10;;;5.18;;
37973;SDS011;23796;51.458;7.000;2023-04-24T06:40:14;6.35;;;4.90;;
37973;SDS011;23796;51.458;7.000;2023-04-24T06:42:40;7.40;;;4.25;;
37973;SDS011;23796;51.458;7.000;2023-04-24T06:45:05;5.47;;;4.57;;
37973;SDS011;23796;51.458;7.000;2023-04-24T06:47:31;7.00;;;4.13;;
37973;SDS011;23796;51.458;7.000;2023-04-24T06:49:59;6.15;;;4.60;;
37973;SDS011;23796;51.458;7.000;2023-04-24T06:52:25;5.32;;;4.25;;
37973;SDS011;23796;51.458;7.000;2023-04-24T06:54:59;7.90;;;4.53;;
37973;SDS011;23796;51.458;7.000;2023-04-24T06:57:26;6.88;;;4.10;;
37973;SDS011;23796;51.458;7.000;2023-04-24T06:59:51;5.32;;;4.07;;
37973;SDS011;23796;51.458;7.000;2023-04-24T07:02:17;6.47;;;4.20;;
37973;SDS011;23796;51.458;7.000;2023-04-24T07:04:42;6.10;;;3.88;;
37973;SDS011;23796;51.458;7.000;2023-04-24T07:07:08;4.90;;;3.55;;
37973;SDS011;23796;51.458;7.000;2023-04-24T07:09:37;5.38;;;3.95;;
37973;SDS011;23796;51.458;7.000;2023-04-24T07:12:06;4.45;;;3.53;;
37973;SDS011;23796;51.458;7.000;2023-04-24T07:14:32;5.50;;;3.50;;
37973;SDS011;23796;51.458;7.000;2023-04-24T07:17:00;5.97;;;3.67;;
37973;SDS011;23796;51.458;7.000;2023-04-24T07:19:28;4.45;;;2.90;;
37973;SDS011;23796;51.458;7.000;2023-04-24T07:21:54;5.28;;;3.10;;
37973;SDS011;23796;51.458;7.000;2023-04-24T07:24:22;4.63;;;2.38;;
37973;SDS011;23796;51.458;7.000;2023-04-24T07:26:48;3.80;;;2.47;;
37973;SDS011;23796;51.458;7.000;2023-04-24T07:29:13;4.53;;;2.03;;
37973;SDS011;23796;51.458;7.000;2023-04-24T07:31:39;4.38;;;2.20;;
37973;SDS011;23796;51.458;7.000;2023-04-24T07:34:07;6.18;;;2.40;;
37973;SDS011;23796;51.458;7.000;2023-04-24T07:36:32;4.88;;;2.40;;
37973;SDS011;23796;51.458;7.000;2023-04-24T07:39:03;4.40;;;2.20;;
37973;SDS011;23796;51.458;7.000;2023-04-24T07:41:29;4.05;;;1.85;;
37973;SDS011;23796;51.458;7.000;2023-04-24T07:43:55;3.03;;;1.70;;
37973;SDS011;23796;51.458;7.000;2023-04-24T07:46:23;3.22;;;1.63;;
37973;SDS011;23796;51.458;7.000;2023-04-24T07:48:54;2.65;;;1.13;;
37973;SDS011;23796;51.458;7.000;2023-04-24T07:51:24;2.05;;;0.85;;
37973;SDS011;23796;51.458;7.000;2023-04-24T07:53:56;2.75;;;0.80;;
37973;SDS011;23796;51.458;7.000;2023-04-24T07:56:23;2.47;;;0.70;;
37973;SDS011;23796;51.458;7.000;2023-04-24T07:58:50;2.05;;;0.63;;
37973;SDS011;23796;51.458;7.000;2023-04-24T08:01:17;1.40;;;0.40;;
37973;SDS011;23796;51.458;7.000;2023-04-24T08:03:43;2.40;;;0.40;;
37973;SDS011;23796;51.458;7.000;2023-04-24T08:06:09;0.88;;;0.35;;
37973;SDS011;23796;51.458;7.000;2023-04-24T08:08:34;0.82;;;0.20;;
37973;SDS011;23796;51.458;7.000;2023-04-24T08:11:00;1.45;;;0.40;;
37973;SDS011;23796;51.458;7.000;2023-04-24T08:13:26;1.70;;;0.50;;
37973;SDS011;23796;51.458;7.000;2023-04-24T08:15:51;0.77;;;0.30;;
37973;SDS011;23796;51.458;7.000;2023-04-24T08:18:17;0.90;;;0.40;;
37973;SDS011;23796;51.458;7.000;2023-04-24T08:20:42;1.65;;;0.50;;
37973;SDS011;23796;51.458;7.000;2023-04-24T08:23:10;1.30;;;0.50;;
37973;SDS011;23796;51.458;7.000;2023-04-24T08:25:38;1.33;;;0.40;;
37973;SDS011;23796;51.458;7.000;2023-04-24T08:28:05;0.93;;;0.32;;
37973;SDS011;23796;51.458;7.000;2023-04-24T08:30:33;1.88;;;0.52;;
37973;SDS011;23796;51.458;7.000;2023-04-24T08:32:59;1.10;;;0.47;;
37973;SDS011;23796;51.458;7.000;2023-04-24T08:35:24;1.55;;;0.60;;
37973;SDS011;23796;51.458;7.000;2023-04-24T08:37:51;2.40;;;0.68;;
37973;SDS011;23796;51.458;7.000;2023-04-24T08:40:19;2.25;;;0.93;;
37973;SDS011;23796;51.458;7.000;2023-04-24T08:42:54;1.65;;;0.60;;
37973;SDS011;23796;51.458;7.000;2023-04-24T08:45:23;1.13;;;0.40;;
37973;SDS011;23796;51.458;7.000;2023-04-24T08:47:49;1.75;;;0.70;;
37973;SDS011;23796;51.458;7.000;2023-04-24T08:50:19;2.78;;;0.93;;
37973;SDS011;23796;51.458;7.000;2023-04-24T08:52:45;2.80;;;1.08;;
37973;SDS011;23796;51.458;7.000;2023-04-24T08:55:12;3.10;;;1.38;;
37973;SDS011;23796;51.458;7.000;2023-04-24T08:57:40;2.17;;;1.00;;
37973;SDS011;23796;51.458;7.000;2023-04-24T09:00:06;2.10;;;0.95;;
37973;SDS011;23796;51.458;7.000;2023-04-24T09:02:32;3.22;;;1.00;;
37973;SDS011;23796;51.458;7.000;2023-04-24T09:04:59;1.98;;;1.00;;
37973;SDS011;23796;51.458;7.000;2023-04-24T09:07:26;3.33;;;1.00;;
37973;SDS011;23796;51.458;7.000;2023-04-24T09:09:55;3.53;;;1.30;;
37973;SDS011;23796;51.458;7.000;2023-04-24T09:12:24;3.08;;;0.80;;
37973;SDS011;23796;51.458;7.000;2023-04-24T09:14:49;2.90;;;1.00;;
37973;SDS011;23796;51.458;7.000;2023-04-24T09:17:16;3.35;;;1.05;;
37973;SDS011;23796;51.458;7.000;2023-04-24T09:19:44;1.98;;;0.80;;
37973;SDS011;23796;51.458;7.000;2023-04-24T09:22:09;2.70;;;1.10;;
37973;SDS011;23796;51.458;7.000;2023-04-24T09:24:36;4.15;;;2.00;;
37973;SDS011;23796;51.458;7.000;2023-04-24T09:27:01;3.92;;;1.48;;
37973;SDS011;23796;51.458;7.000;2023-04-24T09:29:27;3.78;;;2.28;;
37973;SDS011;23796;51.458;7.000;2023-04-24T09:31:57;4.78;;;3.30;;
37973;SDS011;23796;51.458;7.000;2023-04-24T09:34:25;5.00;;;3.50;;
37973;SDS011;23796;51.458;7.000;2023-04-24T09:36:53;6.32;;;4.18;;
37973;SDS011;23796;51.458;7.000;2023-04-24T09:39:19;6.85;;;3.80;;
37973;SDS011;23796;51.458;7.000;2023-04-24T09:41:52;6.43;;;4.10;;
37973;SDS011;23796;51.458;7.000;2023-04-24T09:44:21;8.00;;;4.57;;
37973;SDS011;23796;51.458;7.000;2023-04-24T09:46:55;7.85;;;3.97;;
37973;SDS011;23796;51.458;7.000;2023-04-24T09:49:26;4.50;;;3.33;;
37973;SDS011;23796;51.458;7.000;2023-04-24T09:52:06;4.95;;;3.20;;
37973;SDS011;23796;51.458;7.000;2023-04-24T09:54:34;3.93;;;2.80;;
37973;SDS011;23796;51.458;7.000;2023-04-24T09:57:03;5.38;;;2.75;;
37973;SDS011;23796;51.458;7.000;2023-04-24T09:59:29;5.85;;;3.30;;
37973;SDS011;23796;51.458;7.000;2023-04-24T10:01:55;4.15;;;3.00;;
37973;SDS011;23796;51.458;7.000;2023-04-24T10:04:23;6.35;;;3.30;;
37973;SDS011;23796;51.458;7.000;2023-04-24T10:06:53;7.30;;;3.35;;
37973;SDS011;23796;51.458;7.000;2023-04-24T10:09:22;4.63;;;2.95;;
37973;SDS011;23796;51.458;7.000;2023-04-24T10:11:52;5.75;;;3.17;;
37973;SDS011;23796;51.458;7.000;2023-04-24T10:14:20;6.05;;;3.85;;
37973;SDS011;23796;51.458;7.000;2023-04-24T10:16:49;5.50;;;4.05;;
37973;SDS011;23796;51.458;7.000;2023-04-24T10:19:18;5.85;;;4.15;;
37973;SDS011;23796;51.458;7.000;2023-04-24T10:21:48;7.57;;;4.22;;
37973;SDS011;23796;51.458;7.000;2023-04-24T10:24:15;6.57;;;4.85;;
37973;SDS011;23796;51.458;7.000;2023-04-24T10:26:43;7.25;;;4.70;;
37973;SDS011;23796;51.458;7.000;2023-04-24T10:29:14;6.65;;;4.03;;
37973;SDS011;23796;51.458;7.000;2023-04-24T10:31:42;7.85;;;4.18;;
37973;SDS011;23796;51.458;7.000;2023-04-24T10:34:10;6.55;;;3.40;;
37973;SDS011;23796;51.458;7.000;2023-04-24T10:36:38;8.30;;;3.85;;
37973;SDS011;23796;51.458;7.000;2023-04-24T10:39:08;10.02;;;4.10;;
37973;SDS011;23796;51.458;7.000;2023-04-24T10:41:37;7.68;;;3.88;;
37973;SDS011;23796;51.458;7.000;2023-04-24T10:44:04;10.65;;;4.68;;
37973;SDS011;23796;51.458;7.000;2023-04-24T10:46:34;8.80;;;3.80;;
37973;SDS011;23796;51.458;7.000;2023-04-24T10:49:03;10.13;;;4.18;;
37973;SDS011;23796;51.458;7.000;2023-04-24T11:02:45;9.15;;;4.45;;
37973;SDS011;23796;51.458;7.000;2023-04-24T11:05:18;10.65;;;4.63;;
37973;SDS011;23796;51.458;7.000;2023-04-24T11:10:41;10.05;;;3.40;;
37973;SDS011;23796;51.458;7.000;2023-04-24T11:13:10;8.05;;;3.70;;
37973;SDS011;23796;51.458;7.000;2023-04-24T11:15:35;9.70;;;4.25;;
37973;SDS011;23796;51.458;7.000;2023-04-24T11:18:06;10.80;;;3.65;;
37973;SDS011;23796;51.458;7.000;2023-04-24T11:20:38;9.60;;;3.78;;
37973;SDS011;23796;51.458;7.000;2023-04-24T11:23:11;7.78;;;3.63;;
37973;SDS011;23796;51.458;7.000;2023-04-24T11:25:41;12.55;;;4.32;;
37973;SDS011;23796;51.458;7.000;2023-04-24T11:28:07;9.98;;;3.60;;
37973;SDS011;23796;51.458;7.000;2023-04-24T11:30:39;9.60;;;4.25;;
37973;SDS011;23796;51.458;7.000;2023-04-24T11:33:05;9.82;;;4.20;;
37973;SDS011;23796;51.458;7.000;2023-04-24T11:35:34;11.27;;;4.43;;
37973;SDS011;23796;51.458;7.000;2023-04-24T11:38:03;16.77;;;4.82;;
37973;SDS011;23796;51.458;7.000;2023-04-24T11:40:30;8.00;;;4.07;;
37973;SDS011;23796;51.458;7.000;2023-04-24T11:42:56;11.23;;;3.40;;
37973;SDS011;23796;51.458;7.000;2023-04-24T11:45:27;8.15;;;2.65;;
37973;SDS011;23796;51.458;7.000;2023-04-24T11:47:54;11.30;;;3.33;;
37973;SDS011;23796;51.458;7.000;2023-04-24T11:50:24;9.23;;;2.97;;
37973;SDS011;23796;51.458;7.000;2023-04-24T11:52:51;8.10;;;2.70;;
37973;SDS011;23796;51.458;7.000;2023-04-24T11:57:43;8.38;;;3.65;;
37973;SDS011;23796;51.458;7.000;2023-04-24T12:00:17;10.52;;;3.05;;
37973;SDS011;23796;51.458;7.000;2023-04-24T12:02:43;12.27;;;3.70;;
37973;SDS011;23796;51.458;7.000;2023-04-24T12:05:09;7.47;;;2.53;;
37973;SDS011;23796;51.458;7.000;2023-04-24T12:07:48;8.55;;;2.55;;
37973;SDS011;23796;51.458;7.000;2023-04-24T12:10:19;7.47;;;2.97;;
37973;SDS011;23796;51.458;7.000;2023-04-24T12:12:53;9.10;;;2.75;;
37973;SDS011;23796;51.458;7.000;2023-04-24T12:15:21;8.02;;;2.88;;
37973;SDS011;23796;51.458;7.000;2023-04-24T12:17:50;6.95;;;2.58;;
37973;SDS011;23796;51.458;7.000;2023-04-24T12:20:17;7.63;;;2.60;;
37973;SDS011;23796;51.458;7.000;2023-04-24T12:22:51;8.07;;;2.85;;
37973;SDS011;23796;51.458;7.000;2023-04-24T12:25:19;8.57;;;2.83;;
37973;SDS011;23796;51.458;7.000;2023-04-24T12:27:50;7.22;;;2.50;;
37973;SDS011;23796;51.458;7.000;2023-04-24T12:30:39;6.32;;;2.35;;
37973;SDS011;23796;51.458;7.000;2023-04-24T12:33:06;6.47;;;2.40;;
37973;SDS011;23796;51.458;7.000;2023-04-24T12:35:34;6.85;;;2.80;;
37973;SDS011;23796;51.458;7.000;2023-04-24T12:38:07;7.68;;;3.72;;
37973;SDS011;23796;51.458;7.000;2023-04-24T12:40:40;10.32;;;3.30;;
37973;SDS011;23796;51.458;7.000;2023-04-24T12:43:15;5.18;;;2.00;;
37973;SDS011;23796;51.458;7.000;2023-04-24T12:45:47;5.95;;;1.77;;
37973;SDS011;23796;51.458;7.000;2023-04-24T12:48:13;4.82;;;2.22;;
37973;SDS011;23796;51.458;7.000;2023-04-24T12:50:39;3.33;;;1.42;;
37973;SDS011;23796;51.458;7.000;2023-04-24T12:53:05;5.03;;;1.50;;
37973;SDS011;23796;51.458;7.000;2023-04-24T12:55:36;6.47;;;1.38;;
37973;SDS011;23796;51.458;7.000;2023-04-24T12:58:07;3.87;;;1.17;;
37973;SDS011;23796;51.458;7.000;2023-04-24T13:00:33;5.05;;;1.30;;
37973;SDS011;23796;51.458;7.000;2023-04-24T13:02:58;6.20;;;1.70;;
37973;SDS011;23796;51.458;7.000;2023-04-24T13:05:26;5.72;;;1.85;;
37973;SDS011;23796;51.458;7.000;2023-04-24T13:07:57;4.00;;;1.73;;
37973;SDS011;23796;51.458;7.000;2023-04-24T13:10:25;7.00;;;1.98;;
37973;SDS011;23796;51.458;7.000;2023-04-24T13:12:51;3.88;;;1.60;;
37973;SDS011;23796;51.458;7.000;2023-04-24T13:15:16;4.13;;;1.50;;
37973;SDS011;23796;51.458;7.000;2023-04-24T13:17:42;5.82;;;1.70;;
37973;SDS011;23796;51.458;7.000;2023-04-24T13:20:10;3.75;;;1.00;;
37973;SDS011;23796;51.458;7.000;2023-04-24T13:22:36;4.03;;;1.23;;
37973;SDS011;23796;51.458;7.000;2023-04-24T13:25:02;3.67;;;1.13;;
37973;SDS011;23796;51.458;7.000;2023-04-24T13:27:33;2.58;;;1.00;;
37973;SDS011;23796;51.458;7.000;2023-04-24T13:29:59;3.75;;;1.33;;
37973;SDS011;23796;51.458;7.000;2023-04-24T13:32:24;2.80;;;0.90;;
37973;SDS011;23796;51.458;7.000;2023-04-24T13:34:50;4.10;;;1.00;;
37973;SDS011;23796;51.458;7.000;2023-04-24T13:37:16;5.30;;;1.63;;
37973;SDS011;23796;51.458;7.000;2023-04-24T13:39:43;5.25;;;1.02;;
37973;SDS011;23796;51.458;7.000;2023-04-24T13:42:09;4.50;;;1.30;;
37973;SDS011;23796;51.458;7.000;2023-04-24T13:44:35;3.03;;;1.10;;
37973;SDS011;23796;51.458;7.000;2023-04-24T13:47:01;3.35;;;1.40;;
37973;SDS011;23796;51.458;7.000;2023-04-24T13:49:27;6.00;;;1.45;;
37973;SDS011;23796;51.458;7.000;2023-04-24T13:51:55;4.05;;;1.00;;
37973;SDS011;23796;51.458;7.000;2023-04-24T13:54:23;2.83;;;0.70;;
37973;SDS011;23796;51.458;7.000;2023-04-24T13:56:51;3.53;;;1.10;;
37973;SDS011;23796;51.458;7.000;2023-04-24T13:59:17;8.40;;;1.02;;
37973;SDS011;23796;51.458;7.000;2023-04-24T14:01:46;5.55;;;1.00;;
37973;SDS011;23796;51.458;7.000;2023-04-24T14:04:12;3.63;;;0.82;;
37973;SDS011;23796;51.458;7.000;2023-04-24T14:06:38;3.58;;;0.90;;
37973;SDS011;23796;51.458;7.000;2023-04-24T14:09:03;3.53;;;0.90;;
37973;SDS011;23796;51.458;7.000;2023-04-24T14:11:29;5.10;;;1.15;;
37973;SDS011;23796;51.458;7.000;2023-04-24T14:13:55;5.07;;;1.00;;
37973;SDS011;23796;51.458;7.000;2023-04-24T14:16:23;2.75;;;1.00;;
37973;SDS011;23796;51.458;7.000;2023-04-24T14:18:51;3.60;;;1.17;;
37973;SDS011;23796;51.458;7.000;2023-04-24T14:21:17;2.45;;;0.93;;
37973;SDS011;23796;51.458;7.000;2023-04-24T14:23:42;5.97;;;1.45;;
37973;SDS011;23796;51.458;7.000;2023-04-24T14:26:09;4.60;;;1.20;;
37973;SDS011;23796;51.458;7.000;2023-04-24T14:28:34;4.57;;;2.00;;
37973;SDS011;23796;51.458;7.000;2023-04-24T14:31:03;3.30;;;1.10;;
37973;SDS011;23796;51.458;7.000;2023-04-24T14:33:34;5.88;;;1.15;;
37973;SDS011;23796;51.458;7.000;2023-04-24T14:35:59;3.65;;;1.20;;
37973;SDS011;23796;51.458;7.000;2023-04-24T14:38:27;3.78;;;1.20;;
37973;SDS011;23796;51.458;7.000;2023-04-24T14:40:53;3.38;;;1.02;;
37973;SDS011;23796;51.458;7.000;2023-04-24T14:43:18;5.38;;;1.63;;
37973;SDS011;23796;51.458;7.000;2023-04-24T14:45:47;4.30;;;1.35;;
37973;SDS011;23796;51.458;7.000;2023-04-24T14:48:14;4.35;;;1.00;;
37973;SDS011;23796;51.458;7.000;2023-04-24T14:50:41;2.33;;;0.93;;
37973;SDS011;23796;51.458;7.000;2023-04-24T14:53:06;3.83;;;1.10;;
37973;SDS011;23796;51.458;7.000;2023-04-24T14:55:35;3.53;;;1.10;;
37973;SDS011;23796;51.458;7.000;2023-04-24T14:58:01;4.00;;;1.20;;
37973;SDS011;23796;51.458;7.000;2023-04-24T15:00:27;3.60;;;1.40;;
37973;SDS011;23796;51.458;7.000;2023-04-24T15:02:55;3.88;;;1.48;;